createdAt,value
2018-10-05T00:00:13.877Z,23.5
2018-10-05T00:01:03.659Z,23.5
2018-10-05T00:01:53.971Z,23.5
2018-10-05T00:02:44.907Z,23.4
2018-10-05T00:03:33.832Z,23.4
2018-10-05T00:04:24.735Z,23.4
2018-10-05T00:05:14.234Z,23.4
2018-10-05T00:06:03.768Z,23.5
2018-10-05T00:06:54.629Z,23.4
2018-10-05T00:25:28.547Z,23.4
2018-10-05T00:26:03.908Z,23.4
2018-10-05T00:26:53.660Z,23.4
2018-10-05T00:27:43.712Z,23.4
2018-10-05T00:28:33.530Z,23.4
2018-10-05T00:29:23.835Z,23.4
2018-10-05T00:30:13.854Z,23.4
2018-10-05T00:31:03.716Z,23.4
2018-10-05T00:31:53.770Z,23.4
2018-10-05T00:32:44.183Z,23.4
2018-10-05T00:33:34.171Z,23.4
2018-10-05T00:34:23.684Z,23.4
2018-10-05T00:35:14.224Z,23.4
2018-10-05T00:36:04.349Z,23.4
2018-10-05T00:36:54.111Z,23.4
2018-10-05T00:37:44.194Z,23.4
2018-10-05T00:38:34.812Z,23.4
2018-10-05T00:39:25.236Z,23.4
2018-10-05T00:40:14.947Z,23.4
2018-10-05T00:41:04.999Z,23.4
2018-10-05T00:41:55.097Z,23.4
2018-10-05T00:42:44.821Z,23.4
2018-10-05T00:43:34.301Z,23.4
2018-10-05T00:44:24.073Z,23.4
2018-10-05T00:45:16.024Z,23.4
2018-10-05T00:46:05.360Z,23.4
2018-10-05T00:46:55.144Z,23.4
2018-10-05T00:47:45.463Z,23.4
2018-10-05T00:48:34.938Z,23.4
2018-10-05T00:49:25.548Z,23.4
2018-10-05T00:50:15.078Z,23.4
2018-10-05T00:51:05.447Z,23.4
2018-10-05T00:51:54.918Z,23.4
2018-10-05T00:52:46.130Z,23.4
2018-10-05T00:53:37.164Z,23.4
2018-10-05T00:54:25.111Z,23.4
2018-10-05T00:55:15.526Z,23.4
2018-10-05T00:56:06.085Z,23.4
2018-10-05T00:56:55.924Z,23.4
2018-10-05T00:57:45.724Z,23.4
2018-10-05T00:58:36.016Z,23.4
2018-10-05T00:59:26.241Z,23.4
2018-10-05T01:00:16.013Z,23.4
2018-10-05T01:01:05.643Z,23.4
2018-10-05T01:01:56.709Z,23.3
2018-10-05T01:02:46.643Z,23.4
2018-10-05T01:03:36.623Z,23.3
2018-10-05T01:04:26.427Z,23.4
2018-10-05T01:05:31.082Z,23.4
2018-10-05T01:06:06.802Z,23.4
2018-10-05T01:06:56.025Z,23.4
2018-10-05T01:07:46.923Z,23.3
2018-10-05T01:08:36.387Z,23.3
2018-10-05T01:09:27.082Z,23.4
2018-10-05T01:10:16.304Z,23.4
2018-10-05T01:11:07.180Z,23.3
2018-10-05T01:11:56.958Z,23.3
2018-10-05T01:12:46.740Z,23.4
2018-10-05T01:13:37.330Z,23.3
2018-10-05T01:14:26.658Z,23.4
2018-10-05T01:15:16.375Z,23.3
2018-10-05T01:16:07.513Z,23.3
2018-10-05T01:17:11.997Z,23.3
2018-10-05T01:17:47.410Z,23.3
2018-10-05T01:18:37.739Z,23.4
2018-10-05T01:19:27.524Z,23.3
2018-10-05T01:20:17.032Z,23.4
2018-10-05T01:21:08.134Z,23.3
2018-10-05T01:21:58.029Z,23.4
2018-10-05T01:22:47.540Z,23.3
2018-10-05T01:23:38.391Z,23.3
2018-10-05T01:24:27.066Z,23.3
2018-10-05T01:25:18.182Z,23.3
2018-10-05T01:26:08.792Z,23.3
2018-10-05T01:26:57.777Z,23.3
2018-10-05T01:27:47.886Z,23.3
2018-10-05T01:28:38.909Z,23.3
2018-10-05T01:29:28.008Z,23.3
2018-10-05T01:30:17.739Z,23.3
2018-10-05T01:31:08.706Z,23.3
2018-10-05T01:31:58.234Z,23.3
2018-10-05T01:32:48.511Z,23.3
2018-10-05T01:33:38.583Z,23.3
2018-10-05T01:34:28.635Z,23.3
2018-10-05T01:35:18.675Z,23.3
2018-10-05T01:36:09.009Z,23.3
2018-10-05T01:36:59.098Z,23.3
2018-10-05T01:37:48.573Z,23.3
2018-10-05T01:38:39.000Z,23.3
2018-10-05T01:39:29.302Z,23.3
2018-10-05T01:40:19.344Z,23.3
2018-10-05T01:41:09.138Z,23.3
2018-10-05T01:41:59.138Z,23.3
2018-10-05T01:42:49.643Z,23.3
2018-10-05T01:43:39.606Z,23.3
2018-10-05T01:44:29.703Z,23.3
2018-10-05T01:45:19.488Z,23.3
2018-10-05T01:46:09.226Z,23.3
2018-10-05T01:46:59.803Z,23.3
2018-10-05T01:47:48.486Z,23.3
2018-10-05T01:48:39.161Z,23.3
2018-10-05T01:49:29.991Z,23.3
2018-10-05T01:50:20.103Z,23.3
2018-10-05T01:51:09.608Z,23.3
2018-10-05T01:52:00.248Z,23.3
2018-10-05T01:52:49.995Z,23.3
2018-10-05T01:53:39.862Z,23.3
2018-10-05T01:54:30.406Z,23.3
2018-10-05T01:55:19.953Z,23.3
2018-10-05T01:56:09.095Z,23.3
2018-10-05T01:57:00.570Z,23.3
2018-10-05T01:57:50.565Z,23.3
2018-10-05T01:58:40.157Z,23.3
2018-10-05T01:59:31.238Z,23.3
2018-10-05T02:00:20.560Z,23.3
2018-10-05T02:01:10.368Z,23.3
2018-10-05T02:02:01.274Z,23.3
2018-10-05T02:02:50.742Z,23.3
2018-10-05T02:03:41.056Z,23.3
2018-10-05T02:04:30.037Z,23.3
2018-10-05T02:05:20.367Z,23.3
2018-10-05T02:06:10.960Z,23.3
2018-10-05T02:07:00.442Z,23.3
2018-10-05T02:07:51.064Z,23.3
2018-10-05T02:08:40.875Z,23.3
2018-10-05T02:09:31.481Z,23.3
2018-10-05T02:10:21.022Z,23.3
2018-10-05T02:11:11.064Z,23.3
2018-10-05T02:12:01.684Z,23.3
2018-10-05T02:12:50.913Z,23.3
2018-10-05T02:13:41.504Z,23.3
2018-10-05T02:14:31.571Z,23.3
2018-10-05T02:15:21.654Z,23.3
2018-10-05T02:16:11.701Z,23.3
2018-10-05T02:17:02.100Z,23.3
2018-10-05T02:18:06.476Z,23.3
2018-10-05T02:18:42.179Z,23.3
2018-10-05T02:19:32.268Z,23.3
2018-10-05T02:20:21.540Z,23.3
2018-10-05T02:21:11.288Z,23.3
2018-10-05T02:22:01.877Z,23.3
2018-10-05T02:22:52.478Z,23.3
2018-10-05T02:23:42.282Z,23.3
2018-10-05T02:24:32.366Z,23.3
2018-10-05T02:25:22.337Z,23.3
2018-10-05T02:26:12.935Z,23.3
2018-10-05T02:27:02.257Z,23.3
2018-10-05T02:27:52.829Z,23.3
2018-10-05T02:28:42.348Z,23.2
2018-10-05T02:29:32.430Z,23.3
2018-10-05T02:30:22.496Z,23.3
2018-10-05T02:31:12.835Z,23.3
2018-10-05T02:32:02.909Z,23.3
2018-10-05T02:32:53.712Z,23.3
2018-10-05T02:33:43.021Z,23.3
2018-10-05T02:34:32.505Z,23.3
2018-10-05T02:35:38.080Z,23.2
2018-10-05T02:36:13.220Z,23.3
2018-10-05T02:37:17.926Z,23.3
2018-10-05T02:37:53.620Z,23.3
2018-10-05T02:38:43.325Z,23.2
2018-10-05T02:39:33.665Z,23.3
2018-10-05T02:40:23.249Z,23.3
2018-10-05T02:41:27.746Z,23.2
2018-10-05T02:42:03.926Z,23.2
2018-10-05T02:42:53.352Z,23.3
2018-10-05T02:43:43.969Z,23.2
2018-10-05T02:44:33.842Z,23.2
2018-10-05T02:45:24.152Z,23.3
2018-10-05T02:46:13.953Z,23.2
2018-10-05T02:47:03.405Z,23.2
2018-10-05T02:47:54.329Z,23.2
2018-10-05T02:48:44.666Z,23.2
2018-10-05T02:49:34.467Z,23.2
2018-10-05T02:50:24.534Z,23.2
2018-10-05T02:51:14.879Z,23.2
2018-10-05T02:52:04.666Z,23.2
2018-10-05T02:52:54.132Z,23.3
2018-10-05T02:53:44.683Z,23.2
2018-10-05T02:54:34.310Z,23.3
2018-10-05T02:55:23.771Z,23.2
2018-10-05T02:56:14.962Z,23.2
2018-10-05T02:57:04.164Z,23.2
2018-10-05T02:57:54.824Z,23.2
2018-10-05T02:58:44.361Z,23.2
2018-10-05T02:59:35.190Z,23.2
2018-10-05T03:00:24.955Z,23.2
2018-10-05T03:01:15.261Z,23.2
2018-10-05T03:02:05.129Z,23.2
2018-10-05T03:02:54.703Z,23.2
2018-10-05T03:03:45.238Z,23.2
2018-10-05T03:04:35.256Z,23.2
2018-10-05T03:05:25.675Z,23.2
2018-10-05T03:06:15.141Z,23.2
2018-10-05T03:07:05.190Z,23.2
2018-10-05T03:07:55.960Z,23.2
2018-10-05T03:08:45.904Z,23.2
2018-10-05T03:09:35.683Z,23.3
2018-10-05T03:10:25.463Z,23.2
2018-10-05T03:11:15.188Z,23.2
2018-10-05T03:12:06.433Z,23.2
2018-10-05T03:12:56.226Z,23.2
2018-10-05T03:13:45.952Z,23.2
2018-10-05T03:14:36.005Z,23.2
2018-10-05T03:15:25.838Z,23.3
2018-10-05T03:16:16.130Z,23.3
2018-10-05T03:17:05.932Z,23.3
2018-10-05T03:17:55.722Z,23.4
2018-10-05T03:18:46.617Z,23.4
2018-10-05T03:19:35.288Z,23.4
2018-10-05T03:20:25.892Z,23.4
2018-10-05T03:21:16.237Z,23.4
2018-10-05T03:22:06.911Z,23.5
2018-10-05T03:22:56.656Z,23.6
2018-10-05T03:23:46.847Z,23.6
2018-10-05T03:24:36.772Z,23.6
2018-10-05T03:25:28.002Z,23.6
2018-10-05T03:26:17.329Z,23.6
2018-10-05T03:27:06.391Z,23.6
2018-10-05T03:27:57.285Z,23.6
2018-10-05T03:28:47.623Z,23.6
2018-10-05T03:29:37.447Z,23.6
2018-10-05T03:30:27.528Z,23.6
2018-10-05T03:31:16.989Z,23.6
2018-10-05T03:32:07.063Z,23.6
2018-10-05T03:32:57.536Z,23.6
2018-10-05T03:33:47.916Z,23.6
2018-10-05T03:34:37.498Z,23.6
2018-10-05T03:35:27.272Z,23.6
2018-10-05T03:36:17.870Z,23.6
2018-10-05T03:37:07.921Z,23.6
2018-10-05T03:37:58.019Z,23.6
2018-10-05T03:38:48.152Z,23.6
2018-10-05T03:39:38.153Z,23.6
2018-10-05T03:40:27.626Z,23.6
2018-10-05T03:41:17.693Z,23.6
2018-10-05T03:42:08.056Z,23.6
2018-10-05T03:42:58.073Z,23.6
2018-10-05T03:43:48.455Z,23.6
2018-10-05T03:44:38.463Z,23.6
2018-10-05T03:45:28.295Z,23.6
2018-10-05T03:46:18.100Z,23.6
2018-10-05T03:47:07.843Z,23.5
2018-10-05T03:47:58.411Z,23.6
2018-10-05T03:48:48.000Z,23.6
2018-10-05T03:49:37.749Z,23.6
2018-10-05T03:50:28.131Z,23.6
2018-10-05T03:51:18.999Z,23.6
2018-10-05T03:52:08.792Z,23.6
2018-10-05T03:52:58.876Z,23.6
2018-10-05T03:53:48.350Z,23.6
2018-10-05T03:54:39.249Z,23.6
2018-10-05T03:55:28.487Z,23.6
2018-10-05T03:56:18.840Z,23.6
2018-10-05T03:57:08.915Z,23.6
2018-10-05T03:57:59.285Z,23.6
2018-10-05T03:58:49.274Z,23.6
2018-10-05T03:59:39.377Z,23.5
2018-10-05T04:00:29.452Z,23.6
2018-10-05T04:01:19.483Z,23.6
2018-10-05T04:02:09.254Z,23.6
2018-10-05T04:02:59.029Z,23.6
2018-10-05T04:03:49.612Z,23.6
2018-10-05T04:04:39.239Z,23.6
2018-10-05T04:05:30.064Z,23.6
2018-10-05T04:06:20.102Z,23.6
2018-10-05T04:07:09.067Z,23.6
2018-10-05T04:07:59.365Z,23.6
2018-10-05T04:08:50.034Z,23.6
2018-10-05T04:09:40.116Z,23.6
2018-10-05T04:10:29.579Z,23.6
2018-10-05T04:11:21.764Z,23.4
2018-10-05T04:12:09.726Z,23.6
2018-10-05T04:12:59.803Z,23.6
2018-10-05T04:13:49.837Z,23.6
2018-10-05T04:14:40.469Z,23.6
2018-10-05T04:15:30.284Z,23.6
2018-10-05T04:16:20.594Z,23.5
2018-10-05T04:17:10.854Z,23.6
2018-10-05T04:18:00.674Z,23.5
2018-10-05T04:18:50.773Z,23.6
2018-10-05T04:19:40.803Z,23.6
2018-10-05T04:20:30.620Z,23.6
2018-10-05T04:21:20.999Z,23.6
2018-10-05T04:22:11.023Z,23.6
2018-10-05T04:23:01.141Z,23.6
2018-10-05T04:23:50.861Z,23.6
2018-10-05T04:24:40.438Z,23.6
2018-10-05T04:25:30.973Z,23.6
2018-10-05T04:26:22.856Z,23.6
2018-10-05T04:27:12.073Z,23.6
2018-10-05T04:28:01.264Z,23.5
2018-10-05T04:28:51.473Z,23.6
2018-10-05T04:29:41.279Z,23.6
2018-10-05T04:30:31.331Z,23.6
2018-10-05T04:31:36.153Z,23.5
2018-10-05T04:32:11.548Z,23.6
2018-10-05T04:33:01.605Z,23.6
2018-10-05T04:33:51.108Z,23.5
2018-10-05T04:34:40.584Z,23.6
2018-10-05T04:35:32.487Z,23.6
2018-10-05T04:36:21.280Z,23.5
2018-10-05T04:54:34.845Z,23.5
2018-10-05T04:55:25.384Z,23.5
2018-10-05T04:56:16.055Z,23.5
2018-10-05T04:57:06.153Z,23.5
2018-10-05T04:57:55.654Z,23.5
2018-10-05T04:58:45.636Z,23.6
2018-10-05T04:59:35.960Z,23.6
2018-10-05T05:00:26.271Z,23.6
2018-10-05T05:01:15.846Z,23.6
2018-10-05T05:02:05.630Z,23.5
2018-10-05T05:02:56.197Z,23.6
2018-10-05T05:03:46.056Z,23.5
2018-10-05T05:04:36.636Z,23.5
2018-10-05T05:05:25.342Z,23.5
2018-10-05T05:06:15.579Z,23.6
2018-10-05T05:07:05.973Z,23.5
2018-10-05T05:07:56.272Z,23.5
2018-10-05T05:08:45.839Z,23.5
2018-10-05T05:09:36.724Z,23.6
2018-10-05T05:10:26.579Z,23.5
2018-10-05T05:11:17.083Z,23.6
2018-10-05T05:12:06.924Z,23.6
2018-10-05T05:12:56.451Z,23.5
2018-10-05T05:13:45.374Z,23.5
2018-10-05T05:14:36.579Z,23.5
2018-10-05T05:15:26.901Z,23.5
2018-10-05T05:16:16.146Z,23.5
2018-10-05T05:17:06.170Z,23.5
2018-10-05T05:17:57.362Z,23.6
2018-10-05T05:18:46.952Z,23.5
2018-10-05T05:19:37.919Z,23.5
2018-10-05T05:20:27.261Z,23.5
2018-10-05T05:21:17.040Z,23.5
2018-10-05T05:22:06.853Z,23.6
2018-10-05T05:22:56.595Z,23.5
2018-10-05T05:23:47.540Z,23.6
2018-10-05T05:24:37.276Z,23.6
2018-10-05T05:25:27.257Z,23.5
2018-10-05T05:26:17.593Z,23.6
2018-10-05T05:27:08.243Z,23.6
2018-10-05T05:27:58.289Z,23.5
2018-10-05T05:28:48.199Z,23.5
2018-10-05T05:29:37.634Z,23.6
2018-10-05T05:30:28.442Z,23.6
2018-10-05T05:31:17.157Z,23.6
2018-10-05T05:32:07.764Z,23.5
2018-10-05T05:32:58.701Z,23.6
2018-10-05T05:33:48.662Z,23.5
2018-10-05T05:34:37.696Z,23.6
2018-10-05T05:35:28.828Z,23.6
2018-10-05T05:36:18.893Z,23.6
2018-10-05T05:37:08.396Z,23.6
2018-10-05T05:37:58.763Z,23.6
2018-10-05T05:38:48.781Z,23.5
2018-10-05T05:39:38.624Z,23.6
2018-10-05T05:40:29.755Z,23.6
2018-10-05T05:41:18.978Z,23.5
2018-10-05T05:42:09.023Z,23.6
2018-10-05T05:42:58.811Z,23.6
2018-10-05T05:43:49.504Z,23.6
2018-10-05T05:44:39.230Z,23.6
2018-10-05T05:45:29.299Z,23.6
2018-10-05T05:46:19.050Z,23.6
2018-10-05T05:47:09.713Z,23.6
2018-10-05T05:47:59.504Z,23.6
2018-10-05T05:48:50.066Z,23.6
2018-10-05T05:49:39.043Z,23.6
2018-10-05T05:50:29.368Z,23.6
2018-10-05T05:51:19.444Z,23.6
2018-10-05T05:52:10.132Z,23.6
2018-10-05T05:52:59.937Z,23.6
2018-10-05T05:53:50.761Z,23.6
2018-10-05T05:54:40.802Z,23.6
2018-10-05T05:55:30.065Z,23.5
2018-10-05T05:56:20.667Z,23.6
2018-10-05T05:57:09.882Z,23.6
2018-10-05T05:57:59.690Z,23.6
2018-10-05T05:58:50.559Z,23.6
2018-10-05T05:59:39.774Z,23.6
2018-10-05T06:00:30.714Z,23.6
2018-10-05T06:01:20.081Z,23.6
2018-10-05T06:02:10.804Z,23.5
2018-10-05T06:03:00.727Z,23.5
2018-10-05T06:03:51.194Z,23.5
2018-10-05T06:04:40.704Z,26.1
2018-10-05T06:05:30.787Z,27.6
2018-10-05T06:06:21.442Z,29
2018-10-05T06:07:10.959Z,31.4
2018-10-05T06:08:01.485Z,32.6
2018-10-05T06:08:51.074Z,32.8
2018-10-05T06:09:41.130Z,31.6
2018-10-05T06:10:30.841Z,30.3
2018-10-05T06:11:20.694Z,29.8
2018-10-05T06:12:11.008Z,29.4
2018-10-05T06:13:01.066Z,29.3
2018-10-05T06:13:51.171Z,29.2
2018-10-05T06:14:41.744Z,29.1
2018-10-05T06:15:32.148Z,29
2018-10-05T06:16:22.087Z,28.9
2018-10-05T06:17:11.358Z,28.8
2018-10-05T06:18:01.998Z,28.7
2018-10-05T06:18:52.055Z,28.6
2018-10-05T06:19:42.151Z,28.5
2018-10-05T06:20:31.986Z,28.4
2018-10-05T06:21:21.763Z,28.9
2018-10-05T06:22:12.264Z,30.4
2018-10-05T06:23:01.837Z,31.7
2018-10-05T06:23:52.113Z,33.5
2018-10-05T06:24:42.167Z,34.6
2018-10-05T06:25:32.629Z,34.9
2018-10-05T06:26:22.287Z,34.8
2018-10-05T06:27:13.209Z,34.6
2018-10-05T06:28:02.760Z,34.6
2018-10-05T06:28:52.203Z,34.8
2018-10-05T06:29:42.821Z,35.1
2018-10-05T06:30:32.474Z,35.4
2018-10-05T06:31:23.239Z,35.6
2018-10-05T06:32:12.516Z,35.8
2018-10-05T06:33:03.104Z,35.9
2018-10-05T06:33:52.598Z,36.1
2018-10-05T06:34:43.475Z,36.2
2018-10-05T06:35:32.437Z,36.3
2018-10-05T06:36:22.758Z,36.4
2018-10-05T06:37:13.983Z,36.6
2018-10-05T06:38:03.830Z,36.8
2018-10-05T06:38:53.081Z,37
2018-10-05T06:39:43.295Z,37.1
2018-10-05T06:40:33.217Z,37.3
2018-10-05T06:41:23.677Z,37.4
2018-10-05T06:42:16.346Z,37.6
2018-10-05T06:43:03.255Z,37.7
2018-10-05T06:43:53.286Z,37.8
2018-10-05T06:44:43.103Z,38
2018-10-05T06:45:33.740Z,38.2
2018-10-05T06:46:23.197Z,38.3
2018-10-05T06:47:13.568Z,38.5
2018-10-05T06:48:04.159Z,38.6
2018-10-05T06:48:53.119Z,38.8
2018-10-05T06:49:43.744Z,38.9
2018-10-05T06:50:34.084Z,39.1
2018-10-05T06:51:23.844Z,39.2
2018-10-05T06:52:13.637Z,39.3
2018-10-05T06:53:04.063Z,39.5
2018-10-05T06:53:54.044Z,39.6
2018-10-05T06:54:44.461Z,39.8
2018-10-05T06:55:34.177Z,39.9
2018-10-05T06:56:24.819Z,40.1
2018-10-05T06:57:14.829Z,40.2
2018-10-05T06:58:05.189Z,40.3
2018-10-05T06:58:54.479Z,40.4
2018-10-05T06:59:44.988Z,40.6
2018-10-05T07:00:34.228Z,40.8
2018-10-05T07:01:24.457Z,40.9
2018-10-05T07:02:15.286Z,41.1
2018-10-05T07:03:04.441Z,41.2
2018-10-05T07:03:55.033Z,41.3
2018-10-05T07:04:44.583Z,41.5
2018-10-05T07:05:35.206Z,41.6
2018-10-05T07:06:24.955Z,41.8
2018-10-05T07:07:15.340Z,41.9
2018-10-05T07:08:06.589Z,42.1
2018-10-05T07:08:55.142Z,42.3
2018-10-05T07:09:45.213Z,42.4
2018-10-05T07:10:34.708Z,42.5
2018-10-05T07:11:25.677Z,42.6
2018-10-05T07:12:14.796Z,42.8
2018-10-05T07:13:05.445Z,42.9
2018-10-05T07:13:55.812Z,43
2018-10-05T07:14:45.612Z,43.2
2018-10-05T07:15:35.951Z,43.4
2018-10-05T07:16:26.063Z,43.5
2018-10-05T07:17:16.571Z,43.6
2018-10-05T07:18:06.305Z,43.8
2018-10-05T07:18:55.930Z,43.9
2018-10-05T07:19:45.955Z,44.1
2018-10-05T07:20:36.294Z,44.3
2018-10-05T07:21:27.972Z,44.4
2018-10-05T07:22:16.344Z,44.6
2018-10-05T07:23:06.428Z,44.7
2018-10-05T07:23:56.517Z,44.9
2018-10-05T07:24:46.365Z,44.9
2018-10-05T07:25:36.075Z,45.1
2018-10-05T07:26:26.996Z,45.3
2018-10-05T07:27:16.821Z,45.4
2018-10-05T07:28:06.863Z,45.6
2018-10-05T07:28:56.634Z,45.8
2018-10-05T07:29:47.229Z,45.9
2018-10-05T07:30:37.336Z,46.1
2018-10-05T07:31:26.779Z,46.3
2018-10-05T07:32:16.901Z,46.4
2018-10-05T07:33:06.919Z,46.6
2018-10-05T07:33:57.282Z,46.8
2018-10-05T07:34:47.451Z,46.9
2018-10-05T07:35:36.832Z,47.1
2018-10-05T07:36:27.536Z,47.2
2018-10-05T07:37:18.164Z,47.4
2018-10-05T07:38:06.161Z,47.5
2018-10-05T07:38:57.356Z,47.6
2018-10-05T07:39:47.458Z,47.8
2018-10-05T07:40:38.036Z,47.9
2018-10-05T07:41:27.801Z,48.1
2018-10-05T07:42:17.583Z,48.3
2018-10-05T07:43:09.432Z,48.4
2018-10-05T07:43:58.231Z,48.6
2018-10-05T07:44:48.060Z,48.8
2018-10-05T07:45:37.788Z,48.9
2018-10-05T07:46:28.468Z,49.1
2018-10-05T07:47:17.970Z,49.2
2018-10-05T07:48:08.666Z,49.4
2018-10-05T07:48:58.876Z,49.5
2018-10-05T07:49:48.700Z,49.6
2018-10-05T07:50:38.223Z,49.8
2018-10-05T07:51:28.820Z,49.9
2018-10-05T07:52:18.064Z,50.1
2018-10-05T07:53:08.148Z,50.3
2018-10-05T07:53:59.298Z,50.4
2018-10-05T07:54:48.273Z,50.6
2018-10-05T07:55:38.628Z,50.7
2018-10-05T07:56:28.168Z,50.9
2018-10-05T07:57:19.055Z,51
2018-10-05T07:58:08.512Z,51.2
2018-10-05T07:58:59.122Z,51.4
2018-10-05T07:59:48.904Z,51.4
2018-10-05T08:00:39.513Z,51.6
2018-10-05T08:01:29.329Z,51.7
2018-10-05T08:02:19.637Z,51.8
2018-10-05T08:03:59.791Z,52.1
2018-10-05T08:04:49.806Z,52.3
2018-10-05T08:05:39.137Z,52.5
2018-10-05T08:06:29.474Z,52.6
2018-10-05T08:07:20.032Z,52.8
2018-10-05T08:08:10.059Z,52.9
2018-10-05T08:08:59.897Z,53.1
2018-10-05T08:09:50.101Z,53.3
2018-10-05T08:10:39.769Z,53.4
2018-10-05T08:11:29.881Z,53.6
2018-10-05T08:12:19.384Z,53.8
2018-10-05T08:13:09.973Z,53.9
2018-10-05T08:13:59.969Z,54.1
2018-10-05T08:14:50.384Z,54.2
2018-10-05T08:15:39.874Z,54.4
2018-10-05T08:16:29.441Z,54.5
2018-10-05T08:17:20.200Z,54.6
2018-10-05T08:18:09.481Z,54.8
2018-10-05T08:18:59.591Z,54.9
2018-10-05T08:19:50.716Z,55.1
2018-10-05T08:20:40.745Z,55.3
2018-10-05T08:21:30.743Z,55.4
2018-10-05T08:22:20.111Z,55.5
2018-10-05T08:23:10.923Z,55.6
2018-10-05T08:24:00.671Z,55.8
2018-10-05T08:24:51.028Z,55.9
2018-10-05T08:25:40.811Z,56.1
2018-10-05T08:26:29.663Z,56.2
2018-10-05T08:27:20.576Z,56.3
2018-10-05T08:28:10.606Z,56.4
2018-10-05T08:29:00.575Z,56.6
2018-10-05T08:29:51.692Z,56.7
2018-10-05T08:30:40.999Z,56.8
2018-10-05T08:31:30.758Z,56.9
2018-10-05T08:32:20.592Z,57.1
2018-10-05T08:33:12.213Z,57.1
2018-10-05T08:34:02.518Z,57.3
2018-10-05T08:34:51.546Z,57.4
2018-10-05T08:35:41.570Z,57.5
2018-10-05T08:36:31.463Z,57.6
2018-10-05T08:38:10.948Z,57.9
2018-10-05T08:39:01.308Z,58
2018-10-05T08:39:53.215Z,58.1
2018-10-05T08:40:42.490Z,58.3
2018-10-05T08:41:31.510Z,58.4
2018-10-05T08:42:22.352Z,58.5
2018-10-05T08:43:11.855Z,58.6
2018-10-05T08:44:01.670Z,58.8
2018-10-05T08:44:52.277Z,58.9
2018-10-05T08:45:42.529Z,59
2018-10-05T08:46:31.090Z,59.1
2018-10-05T08:47:22.455Z,59.2
2018-10-05T08:48:11.729Z,59.3
2018-10-05T08:49:01.212Z,59.4
2018-10-05T08:49:52.432Z,59.6
2018-10-05T08:50:42.167Z,59.6
2018-10-05T08:51:33.156Z,59.8
2018-10-05T08:52:23.285Z,59.9
2018-10-05T09:08:41.621Z,61.6
2018-10-05T09:09:31.166Z,61.8
2018-10-05T09:10:21.764Z,61.8
2018-10-05T09:11:11.274Z,61.9
2018-10-05T09:12:01.626Z,62
2018-10-05T09:12:51.653Z,62.1
2018-10-05T09:13:41.179Z,62.2
2018-10-05T09:14:30.970Z,62.3
2018-10-05T09:15:21.001Z,62.4
2018-10-05T09:16:11.340Z,62.4
2018-10-05T09:17:01.701Z,62.5
2018-10-05T09:17:52.283Z,62.6
2018-10-05T09:18:41.825Z,62.7
2018-10-05T09:19:31.300Z,62.8
2018-10-05T09:20:21.945Z,62.8
2018-10-05T09:21:12.287Z,62.9
2018-10-05T09:22:02.380Z,62.9
2018-10-05T09:22:52.665Z,63
2018-10-05T09:23:42.147Z,63.1
2018-10-05T09:24:32.270Z,63.2
2018-10-05T09:25:20.798Z,63.2
2018-10-05T09:26:12.650Z,63.3
2018-10-05T09:27:01.878Z,63.4
2018-10-05T09:27:52.779Z,63.4
2018-10-05T09:28:42.534Z,63.5
2018-10-05T09:29:32.889Z,63.6
2018-10-05T09:30:22.407Z,63.6
2018-10-05T09:31:11.889Z,63.7
2018-10-05T09:32:01.757Z,63.7
2018-10-05T09:32:51.729Z,63.8
2018-10-05T09:33:43.107Z,63.9
2018-10-05T09:34:33.505Z,63.9
2018-10-05T09:35:22.199Z,64
2018-10-05T09:36:13.351Z,64.1
2018-10-05T09:37:02.923Z,64.1
2018-10-05T09:37:54.621Z,64.3
2018-10-05T09:38:43.544Z,64.3
2018-10-05T09:39:33.069Z,64.4
2018-10-05T09:40:23.095Z,64.4
2018-10-05T09:41:12.856Z,64.4
2018-10-05T09:42:03.537Z,64.5
2018-10-05T09:42:53.834Z,64.6
2018-10-05T09:43:44.584Z,64.6
2018-10-05T09:44:33.449Z,64.7
2018-10-05T09:45:24.155Z,64.8
2018-10-05T09:46:14.396Z,64.8
2018-10-05T09:47:04.419Z,64.9
2018-10-05T09:47:53.666Z,65
2018-10-05T09:48:43.824Z,65.1
2018-10-05T09:49:33.621Z,65.1
2018-10-05T09:50:24.139Z,65.2
2018-10-05T09:51:15.211Z,65.2
2018-10-05T09:52:04.284Z,65.3
2018-10-05T09:52:54.883Z,65.3
2018-10-05T09:53:44.701Z,65.4
2018-10-05T09:54:34.696Z,65.4
2018-10-05T09:55:23.378Z,65.5
2018-10-05T09:56:13.574Z,65.6
2018-10-05T09:57:03.871Z,65.6
2018-10-05T09:57:55.487Z,65.8
2018-10-05T09:58:45.078Z,65.8
2018-10-05T09:59:34.974Z,65.8
2018-10-05T10:00:24.117Z,65.9
2018-10-05T10:01:14.997Z,66
2018-10-05T10:02:05.010Z,66
2018-10-05T10:02:55.642Z,66.1
2018-10-05T10:03:45.428Z,66.1
2018-10-05T10:04:35.205Z,66.2
2018-10-05T10:05:25.067Z,66.2
2018-10-05T10:06:15.389Z,66.3
2018-10-05T10:07:05.142Z,66.3
2018-10-05T10:07:56.691Z,66.4
2018-10-05T10:08:45.535Z,66.4
2018-10-05T10:09:35.588Z,66.4
2018-10-05T10:10:25.380Z,66.3
2018-10-05T10:11:15.182Z,66.3
2018-10-05T10:12:05.701Z,66.4
2018-10-05T10:12:55.264Z,66.4
2018-10-05T10:13:46.684Z,66.5
2018-10-05T10:14:36.379Z,66.6
2018-10-05T10:15:26.558Z,66.7
2018-10-05T10:16:16.017Z,66.8
2018-10-05T10:17:05.844Z,66.8
2018-10-05T10:17:56.694Z,66.9
2018-10-05T10:18:46.776Z,66.9
2018-10-05T10:19:36.209Z,67.1
2018-10-05T10:20:26.556Z,67.1
2018-10-05T10:21:16.492Z,67.1
2018-10-05T10:22:06.146Z,67.2
2018-10-05T10:22:56.795Z,67.3
2018-10-05T10:23:46.579Z,67.3
2018-10-05T10:24:37.153Z,67.4
2018-10-05T10:25:26.686Z,67.4
2018-10-05T10:26:17.568Z,67.5
2018-10-05T10:27:07.334Z,67.6
2018-10-05T10:27:57.825Z,67.7
2018-10-05T10:28:49.088Z,67.8
2018-10-05T10:29:38.513Z,67.8
2018-10-05T10:30:27.114Z,67.9
2018-10-05T10:31:17.441Z,67.9
2018-10-05T10:32:07.414Z,68
2018-10-05T10:32:57.227Z,68
2018-10-05T10:33:49.228Z,68.1
2018-10-05T10:34:38.851Z,68.1
2018-10-05T10:35:28.255Z,68.1
2018-10-05T10:36:18.321Z,68.2
2018-10-05T10:37:08.672Z,68.2
2018-10-05T10:37:57.596Z,68.3
2018-10-05T10:38:47.673Z,68.3
2018-10-05T10:39:38.819Z,68.4
2018-10-05T10:40:28.073Z,68.5
2018-10-05T10:41:18.386Z,68.6
2018-10-05T10:42:08.742Z,68.6
2018-10-05T10:42:57.391Z,68.7
2018-10-05T10:43:48.576Z,68.8
2018-10-05T10:44:38.664Z,68.8
2018-10-05T10:45:28.981Z,68.8
2018-10-05T10:46:18.766Z,68.9
2018-10-05T10:47:07.728Z,68.9
2018-10-05T10:47:58.997Z,69
2018-10-05T10:48:47.811Z,69.1
2018-10-05T10:49:38.728Z,69.1
2018-10-05T10:50:29.081Z,69.1
2018-10-05T10:51:18.378Z,69.2
2018-10-05T10:52:08.973Z,69.2
2018-10-05T10:52:59.078Z,69.2
2018-10-05T10:53:49.071Z,69.2
2018-10-05T10:54:38.813Z,69.3
2018-10-05T10:55:28.323Z,69.3
2018-10-05T10:56:21.307Z,69.3
2018-10-05T10:57:09.330Z,69.4
2018-10-05T10:57:59.630Z,69.4
2018-10-05T10:58:49.445Z,69.4
2018-10-05T10:59:39.197Z,69.5
2018-10-05T11:00:29.604Z,69.6
2018-10-05T11:01:20.121Z,69.6
2018-10-05T11:02:10.237Z,69.6
2018-10-05T11:03:00.111Z,69.6
2018-10-05T11:03:50.135Z,69.7
2018-10-05T11:04:41.919Z,69.8
2018-10-05T11:05:29.909Z,69.7
2018-10-05T11:06:19.112Z,69.8
2018-10-05T11:07:10.293Z,69.8
2018-10-05T11:08:00.199Z,69.8
2018-10-05T11:08:50.564Z,69.8
2018-10-05T11:09:40.546Z,69.8
2018-10-05T11:10:30.102Z,69.8
2018-10-05T11:11:21.954Z,69.8
2018-10-05T11:12:11.061Z,69.8
2018-10-05T11:13:00.156Z,69.8
2018-10-05T11:13:50.504Z,69.7
2018-10-05T11:14:40.591Z,69.7
2018-10-05T11:15:31.179Z,69.6
2018-10-05T11:16:21.486Z,69.7
2018-10-05T11:17:12.406Z,69.8
2018-10-05T11:18:01.096Z,69.8
2018-10-05T11:18:51.164Z,69.8
2018-10-05T11:19:41.512Z,69.9
2018-10-05T11:20:31.582Z,69.9
2018-10-05T11:21:21.346Z,69.9
2018-10-05T11:22:11.687Z,69.9
2018-10-05T11:23:01.431Z,70
2018-10-05T11:23:51.563Z,70
2018-10-05T11:24:41.902Z,70.1
2018-10-05T11:25:31.645Z,70.1
2018-10-05T11:26:21.986Z,70.1
2018-10-05T11:27:11.458Z,70.1
2018-10-05T11:28:02.124Z,70.2
2018-10-05T11:28:51.321Z,70.3
2018-10-05T11:29:42.363Z,70.3
2018-10-05T11:30:31.456Z,70.3
2018-10-05T11:31:22.108Z,70.4
2018-10-05T11:32:12.418Z,70.4
2018-10-05T11:33:02.245Z,70.4
2018-10-05T11:33:52.269Z,70.4
2018-10-05T11:34:41.748Z,70.5
2018-10-05T11:35:32.098Z,70.5
2018-10-05T11:36:22.505Z,70.6
2018-10-05T11:37:12.585Z,70.6
2018-10-05T11:38:02.358Z,70.6
2018-10-05T11:38:52.973Z,70.7
2018-10-05T11:39:42.547Z,70.7
2018-10-05T11:40:32.525Z,70.8
2018-10-05T11:41:22.063Z,70.8
2018-10-05T11:42:12.670Z,70.8
2018-10-05T11:43:03.058Z,70.8
2018-10-05T11:43:52.600Z,70.8
2018-10-05T11:44:42.859Z,70.9
2018-10-05T11:45:32.950Z,70.9
2018-10-05T11:46:23.825Z,70.9
2018-10-05T11:47:12.210Z,70.9
2018-10-05T11:48:03.086Z,70.9
2018-10-05T11:48:53.162Z,71
2018-10-05T11:49:43.422Z,71
2018-10-05T11:50:32.561Z,71
2018-10-05T11:51:23.501Z,71.1
2018-10-05T11:52:13.688Z,71.1
2018-10-05T11:53:03.249Z,71.1
2018-10-05T11:53:53.649Z,71.1
2018-10-05T11:54:43.466Z,71.1
2018-10-05T11:55:33.790Z,71.1
2018-10-05T11:56:24.053Z,71.1
2018-10-05T11:57:13.339Z,71
2018-10-05T11:58:03.367Z,71
2018-10-05T11:58:53.925Z,71
2018-10-05T11:59:44.670Z,71.1